Chantilly, Virginia
Current Conditions -  °F | °C
As of 11:52 AM on Wednesday 26 Nov 2014 (Local Time) from KIAD Reporting Station
Light Snow Light Snow  
Wind Chill: 24°   Ceiling: 300
Heat Index: 32°   Visibility: 1mi
Dew Point: 31°   Wind: 10mph
Humidity: 96%   Direction: 350°N
Pressure: 29.99"   Gusts: NA
Location:  38.88°N, 77.44°W
Report Text: KIAD 261652Z 35009KT 1SM R01R/5000VP6000FT -SN BR BKN003 OVC010 00/M01 A2999 RMK AO2 SLP156 P0012 T00001006
Loading
Personal Weather Stations






























Interactive Weather Map New forecast layout! Learn more

10-Day Weather Forecast

Advertisements
Track Severe Weather on mobile